Time;durP1;ratioP1;P1;durP2;ratioP2;P2;SDS_P1;SDS_P2;PMS_P1;PMS_P2;Temp;Humidity;BMP_temperature;BMP_pressure;BME280_temperature;BME280_humidity;BME280_pressure;Samples;Min_cycle;Max_cycle;Signal;HPM_P1;HPM_P2
2022/01/30 00:00:36;;;;;;;27.73;5.05;;;6.20;99.90;;;;;;5051420;28;20057;-69
2022/01/30 00:03:02;;;;;;;28.20;4.43;;;6.30;99.90;;;;;;5051215;28;20033;-69
2022/01/30 00:05:28;;;;;;;24.77;4.07;;;6.30;99.90;;;;;;5049043;28;20033;-71
2022/01/30 00:07:54;;;;;;;17.15;3.45;;;6.40;99.90;;;;;;5051627;28;20099;-70
2022/01/30 00:10:20;;;;;;;29.33;5.22;;;6.50;99.90;;;;;;5049575;28;20044;-69
2022/01/30 00:12:50;;;;;;;18.17;4.32;;;6.60;99.90;;;;;;5049997;28;20406;-70
2022/01/30 00:15:18;;;;;;;26.42;5.20;;;6.60;99.90;;;;;;5033029;28;20040;-70
2022/01/30 00:17:50;;;;;;;25.85;4.50;;;6.70;99.90;;;;;;5051481;28;20071;-70
2022/01/30 00:20:23;;;;;;;12.57;3.22;;;6.50;99.90;;;;;;5049652;28;20064;-70
2022/01/30 00:22:58;;;;;;;17.33;3.40;;;6.60;99.90;;;;;;5051532;28;20468;-69
2022/01/30 00:25:44;;;;;;;18.48;4.18;;;6.50;99.90;;;;;;5049162;28;20053;-69
2022/01/30 00:28:12;;;;;;;11.85;2.50;;;6.40;99.90;;;;;;5046649;28;20099;-70
2022/01/30 00:30:38;;;;;;;13.65;2.75;;;6.30;99.90;;;;;;5032096;28;20152;-69
2022/01/30 00:33:04;;;;;;;14.57;2.78;;;6.30;99.90;;;;;;5048884;28;20207;-69
2022/01/30 00:35:33;;;;;;;21.25;4.05;;;6.30;99.90;;;;;;5050162;28;20035;-70
2022/01/30 00:37:59;;;;;;;22.77;3.65;;;6.40;99.90;;;;;;5050186;28;20123;-70
2022/01/30 00:40:24;;;;;;;22.65;3.90;;;6.40;99.90;;;;;;5048914;28;20136;-70
2022/01/30 00:42:50;;;;;;;14.05;2.95;;;6.30;99.90;;;;;;5049901;28;20043;-70
2022/01/30 00:45:16;;;;;;;19.02;2.92;;;6.20;99.90;;;;;;5052824;28;20041;-69
2022/01/30 00:47:41;;;;;;;10.70;2.80;;;6.90;99.90;;;;;;5048884;28;20128;-70
2022/01/30 00:50:07;;;;;;;17.00;3.72;;;6.10;99.90;;;;;;5047771;28;20041;-70
2022/01/30 00:52:33;;;;;;;21.00;3.75;;;6.20;99.90;;;;;;5051586;28;20053;-70
2022/01/30 00:54:58;;;;;;;25.45;5.07;;;6.10;99.90;;;;;;5034395;28;20037;-69
2022/01/30 00:57:24;;;;;;;27.42;5.15;;;6.00;99.90;;;;;;5052888;28;20413;-70
2022/01/30 00:59:49;;;;;;;30.17;4.70;;;6.00;99.90;;;;;;5048647;28;20053;-70
2022/01/30 01:02:17;;;;;;;31.55;5.80;;;6.00;99.90;;;;;;5050140;28;20037;-69
2022/01/30 01:04:43;;;;;;;29.27;5.65;;;6.00;99.90;;;;;;5047793;28;20150;-70
2022/01/30 01:07:15;;;;;;;34.13;4.93;;;6.00;99.90;;;;;;5051439;28;20047;-70
2022/01/30 01:09:42;;;;;;;33.40;6.20;;;6.00;99.90;;;;;;5055919;28;20053;-69
2022/01/30 01:12:33;;;;;;;28.25;5.18;;;6.00;99.90;;;;;;5050363;28;20049;-69
2022/01/30 01:25:50;;;;;;;30.08;4.97;;;6.00;99.90;;;;;;5033894;28;20037;-71
2022/01/30 01:28:16;;;;;;;29.17;5.47;;;6.10;99.90;;;;;;5049890;28;20040;-69
2022/01/30 01:30:41;;;;;;;37.92;6.47;;;6.30;99.90;;;;;;5051059;28;20155;-69
2022/01/30 01:33:07;;;;;;;29.40;5.85;;;6.30;99.90;;;;;;5050173;28;20398;-71
2022/01/30 01:35:33;;;;;;;30.02;5.10;;;6.30;99.90;;;;;;5048230;28;20084;-71
2022/01/30 01:37:59;;;;;;;27.00;5.35;;;6.40;99.90;;;;;;5049989;28;20455;-71
2022/01/30 01:40:24;;;;;;;26.15;4.05;;;6.50;99.90;;;;;;5049094;28;20029;-69
2022/01/30 01:42:50;;;;;;;30.70;5.20;;;6.40;99.90;;;;;;5047822;28;20060;-69
2022/01/30 01:45:20;;;;;;;20.00;4.35;;;6.40;99.90;;;;;;5049373;28;20033;-69
2022/01/30 01:47:47;;;;;;;25.33;4.95;;;6.40;99.90;;;;;;5051233;28;20041;-69
2022/01/30 01:50:27;;;;;;;24.23;4.65;;;6.40;99.90;;;;;;5045983;28;20040;-69
2022/01/30 01:52:53;;;;;;;20.42;4.10;;;6.30;99.90;;;;;;5049192;28;20052;-69
2022/01/30 01:55:19;;;;;;;26.63;4.18;;;6.10;99.90;;;;;;5048700;28;20446;-69
2022/01/30 01:57:44;;;;;;;24.30;4.57;;;6.20;99.90;;;;;;5048039;28;20060;-69
2022/01/30 02:00:10;;;;;;;29.70;5.38;;;6.10;99.90;;;;;;5048270;28;20454;-69
2022/01/30 02:02:36;;;;;;;26.73;4.68;;;6.10;99.90;;;;;;5049298;28;20367;-69
2022/01/30 02:05:03;;;;;;;25.98;5.00;;;6.10;99.90;;;;;;5048647;28;20071;-69
2022/01/30 02:09:55;;;;;;;26.33;4.50;;;6.20;99.90;;;;;;5047672;28;20115;-68
2022/01/30 02:12:30;;;;;;;35.00;4.78;;;6.30;99.90;;;;;;5048580;28;20045;-69
2022/01/30 02:15:28;;;;;;;29.58;6.35;;;6.30;99.90;;;;;;5048430;28;20045;-69
2022/01/30 02:23:58;;;;;;;25.95;4.15;;;6.50;99.90;;;;;;5048121;28;20045;-69
2022/01/30 02:26:16;;;;;;;28.17;4.72;;;6.50;99.90;;;;;;5049018;28;20037;-69
2022/01/30 02:28:42;;;;;;;34.28;6.13;;;6.40;99.90;;;;;;5045848;28;20048;-68
2022/01/30 02:31:12;;;;;;;32.55;6.88;;;6.40;99.90;;;;;;5039169;28;20041;-69
2022/01/30 02:33:39;;;;;;;31.73;5.55;;;6.30;99.90;;;;;;5044311;28;20056;-69
2022/01/30 02:36:05;;;;;;;30.92;5.65;;;6.40;99.90;;;;;;5048949;28;20044;-69
2022/01/30 02:38:32;;;;;;;23.60;4.78;;;6.40;99.90;;;;;;5050233;28;20033;-69
2022/01/30 02:40:58;;;;;;;36.78;5.53;;;6.30;99.90;;;;;;5049777;28;20106;-69
2022/01/30 02:43:35;;;;;;;27.17;6.03;;;6.20;99.90;;;;;;5047608;28;20033;-69
2022/01/30 02:48:58;;;;;;;31.67;5.95;;;6.20;99.90;;;;;;5045695;28;20975;-69
2022/01/30 02:51:32;;;;;;;35.00;6.30;;;6.10;99.90;;;;;;5048457;28;20045;-69
2022/01/30 02:54:05;;;;;;;43.47;6.53;;;6.10;99.90;;;;;;5047337;28;20508;-68
2022/01/30 02:56:31;;;;;;;35.92;6.60;;;6.00;99.90;;;;;;5047802;28;20053;-69
2022/01/30 02:58:56;;;;;;;39.65;6.25;;;6.10;99.90;;;;;;5047469;28;20123;-69
2022/01/30 03:01:22;;;;;;;42.63;6.60;;;6.10;99.90;;;;;;5046223;28;20049;-69
2022/01/30 03:03:48;;;;;;;41.60;6.63;;;6.10;99.90;;;;;;5046144;28;20049;-69
2022/01/30 03:06:13;;;;;;;47.53;7.75;;;6.10;99.90;;;;;;5048763;28;20397;-69
2022/01/30 03:08:39;;;;;;;37.38;6.13;;;6.20;99.90;;;;;;5045479;28;20041;-70
2022/01/30 03:11:05;;;;;;;31.40;6.68;;;6.20;99.90;;;;;;5042605;28;20405;-70
2022/01/30 03:13:30;;;;;;;29.85;5.85;;;6.30;99.90;;;;;;5046425;28;20055;-68
2022/01/30 03:15:59;;;;;;;29.65;5.65;;;6.30;99.90;;;;;;5047155;28;20053;-71
2022/01/30 03:18:25;;;;;;;33.85;6.05;;;6.40;99.90;;;;;;5046517;28;20041;-71
2022/01/30 03:20:50;;;;;;;37.67;6.40;;;6.40;99.90;;;;;;5044799;28;20071;-70
2022/01/30 03:23:16;;;;;;;40.50;6.82;;;6.40;99.90;;;;;;5027740;28;20055;-71
2022/01/30 03:25:42;;;;;;;40.35;6.72;;;6.50;99.90;;;;;;5030187;28;20053;-69
2022/01/30 03:28:07;;;;;;;43.17;7.18;;;6.60;99.90;;;;;;5050802;28;20505;-68
2022/01/30 03:30:33;;;;;;;36.50;6.00;;;6.60;99.90;;;;;;5051624;28;20434;-71
2022/01/30 03:33:00;;;;;;;30.13;5.55;;;6.60;99.90;;;;;;5051706;28;20107;-69
2022/01/30 03:35:25;;;;;;;36.97;6.68;;;6.70;99.90;;;;;;5048368;28;20040;-69
2022/01/30 03:37:51;;;;;;;34.33;5.88;;;6.60;99.90;;;;;;5051637;28;20497;-69
2022/01/30 03:40:17;;;;;;;41.13;5.95;;;6.60;99.90;;;;;;5051892;28;20551;-69
2022/01/30 03:42:42;;;;;;;29.23;7.05;;;6.60;99.90;;;;;;5065637;28;20155;-69
2022/01/30 03:45:08;;;;;;;44.20;7.65;;;6.70;99.90;;;;;;5051356;28;20109;-69
2022/01/30 03:47:34;;;;;;;30.30;6.35;;;6.60;99.90;;;;;;5051271;28;20045;-69
2022/01/30 03:50:00;;;;;;;42.85;6.60;;;6.60;99.90;;;;;;5047539;28;20041;-69
2022/01/30 03:52:25;;;;;;;40.60;6.88;;;6.70;99.90;;;;;;5051347;28;20052;-69
2022/01/30 03:54:51;;;;;;;33.13;6.65;;;6.60;99.90;;;;;;5051475;28;20132;-69
2022/01/30 03:57:16;;;;;;;42.22;7.63;;;6.70;99.90;;;;;;5050544;28;20045;-69
2022/01/30 03:59:42;;;;;;;38.85;6.63;;;6.50;99.90;;;;;;5041592;28;20115;-69
2022/01/30 04:02:08;;;;;;;37.35;5.25;;;6.50;99.90;;;;;;5051933;28;20041;-69
2022/01/30 04:04:33;;;;;;;34.67;6.65;;;6.60;99.90;;;;;;5045634;28;20033;-69
2022/01/30 04:07:00;;;;;;;44.53;7.40;;;6.60;99.90;;;;;;5055872;28;20064;-69
2022/01/30 04:09:27;;;;;;;31.92;6.43;;;6.60;99.90;;;;;;5052240;28;20136;-69
2022/01/30 04:11:53;;;;;;;40.33;6.15;;;6.60;99.90;;;;;;5051066;28;20485;-69
2022/01/30 04:14:19;;;;;;;36.83;6.32;;;6.60;99.90;;;;;;5051098;28;20086;-70
2022/01/30 04:16:44;;;;;;;29.73;5.13;;;6.60;99.90;;;;;;5049468;28;20037;-69
2022/01/30 04:19:10;;;;;;;31.30;6.20;;;6.60;99.90;;;;;;5048743;28;20049;-69
2022/01/30 04:21:36;;;;;;;38.20;7.13;;;6.60;99.90;;;;;;5050799;28;20043;-70
2022/01/30 04:24:02;;;;;;;46.15;7.57;;;6.50;99.90;;;;;;5051644;28;20052;-69
2022/01/30 04:26:27;;;;;;;39.95;7.28;;;6.50;99.90;;;;;;5051236;28;20063;-70
2022/01/30 04:28:53;;;;;;;41.10;8.48;;;6.50;99.90;;;;;;5047152;28;20049;-69
2022/01/30 04:31:19;;;;;;;53.85;7.90;;;6.50;99.90;;;;;;5050599;28;20131;-69
2022/01/30 04:33:45;;;;;;;53.00;8.57;;;6.50;99.90;;;;;;5048888;28;20506;-70
2022/01/30 04:36:15;;;;;;;44.67;9.02;;;6.60;99.90;;;;;;5050245;28;20037;-70
2022/01/30 04:39:05;;;;;;;55.53;9.00;;;6.50;99.90;;;;;;5047422;28;20511;-69
2022/01/30 04:42:05;;;;;;;42.88;7.75;;;6.50;99.90;;;;;;5050830;28;20128;-70
2022/01/30 04:57:54;;;;;;;34.20;6.93;;;6.80;99.90;;;;;;5050818;28;20466;-69
2022/01/30 05:00:49;;;;;;;51.75;8.18;;;7.80;99.90;;;;;;5049334;28;20041;-69
2022/01/30 05:06:04;;;;;;;43.95;7.68;;;6.70;99.90;;;;;;5051029;28;20099;-69
2022/01/30 05:08:30;;;;;;;47.33;7.78;;;6.70;99.90;;;;;;5047581;28;20051;-70
2022/01/30 05:10:56;;;;;;;45.58;7.85;;;6.70;99.90;;;;;;5049426;28;20049;-70
2022/01/30 05:13:25;;;;;;;43.65;8.45;;;6.70;99.90;;;;;;5031557;28;20477;-70
2022/01/30 05:15:51;;;;;;;45.28;7.43;;;6.70;99.90;;;;;;5048728;28;20041;-70
2022/01/30 05:18:26;;;;;;;45.47;7.95;;;6.80;99.90;;;;;;5032523;28;20136;-70
2022/01/30 05:20:52;;;;;;;46.28;7.30;;;6.80;99.90;;;;;;5049535;28;20341;-69
2022/01/30 05:23:18;;;;;;;47.90;8.93;;;6.80;99.90;;;;;;5048041;28;20040;-69
2022/01/30 05:25:49;;;;;;;46.55;8.30;;;6.70;99.90;;;;;;5049441;28;20138;-69
2022/01/30 05:28:15;;;;;;;41.47;7.38;;;6.80;99.90;;;;;;5048299;28;20076;-69
2022/01/30 05:30:41;;;;;;;38.53;6.85;;;6.70;99.90;;;;;;5048044;28;20425;-69
2022/01/30 05:33:07;;;;;;;49.25;7.65;;;6.60;99.90;;;;;;5048387;28;20091;-69
2022/01/30 05:35:33;;;;;;;44.65;7.78;;;6.60;99.90;;;;;;5046953;28;20417;-69
2022/01/30 05:38:00;;;;;;;41.40;8.13;;;6.60;99.90;;;;;;5049568;28;20408;-69
2022/01/30 05:40:26;;;;;;;48.05;8.27;;;6.50;99.90;;;;;;5048394;28;20041;-69
2022/01/30 05:42:52;;;;;;;45.17;7.60;;;6.60;99.90;;;;;;5029233;28;20064;-71
2022/01/30 05:45:26;;;;;;;47.70;8.30;;;6.50;99.90;;;;;;5028607;28;20037;-69
2022/01/30 05:47:58;;;;;;;44.05;8.05;;;6.60;99.90;;;;;;5049584;28;20049;-69
2022/01/30 05:50:24;;;;;;;61.88;8.27;;;6.50;99.90;;;;;;5061975;28;20053;-69
2022/01/30 05:52:50;;;;;;;25.73;5.55;;;6.60;99.90;;;;;;5048567;28;20049;-69
2022/01/30 05:55:15;;;;;;;26.65;5.50;;;6.60;99.90;;;;;;5048529;28;20076;-69
2022/01/30 05:57:41;;;;;;;45.13;7.10;;;6.60;99.90;;;;;;5048196;28;20204;-69
2022/01/30 06:00:09;;;;;;;40.00;6.35;;;6.40;99.90;;;;;;5050303;28;20045;-69
2022/01/30 06:02:35;;;;;;;33.30;6.50;;;6.10;99.90;;;;;;5050879;28;20120;-69
2022/01/30 06:05:01;;;;;;;37.25;6.10;;;6.00;99.90;;;;;;5049847;28;20048;-69
2022/01/30 06:07:30;;;;;;;41.08;7.20;;;5.90;99.90;;;;;;5047250;28;20053;-69
2022/01/30 06:09:56;;;;;;;51.88;8.25;;;5.90;99.90;;;;;;5042405;28;20044;-69
2022/01/30 06:12:22;;;;;;;43.50;7.05;;;5.80;99.90;;;;;;5050980;28;20469;-70
2022/01/30 06:14:47;;;;;;;45.13;7.65;;;5.70;99.90;;;;;;5050550;28;20045;-69
2022/01/30 06:17:14;;;;;;;42.70;7.80;;;5.70;99.90;;;;;;5046909;28;20516;-69
2022/01/30 06:19:40;;;;;;;49.90;7.00;;;5.70;99.90;;;;;;5044953;28;20079;-69
2022/01/30 06:22:05;;;;;;;43.80;6.68;;;5.80;99.90;;;;;;5048147;28;20080;-69
2022/01/30 06:24:31;;;;;;;46.35;7.47;;;5.80;99.90;;;;;;5047115;28;20151;-71
2022/01/30 06:26:56;;;;;;;41.28;7.63;;;5.80;99.90;;;;;;5048658;28;20441;-71
2022/01/30 06:29:22;;;;;;;48.53;7.20;;;5.80;99.90;;;;;;5047938;28;20048;-71
2022/01/30 06:31:48;;;;;;;36.35;7.13;;;5.90;99.90;;;;;;5047907;28;20501;-71
2022/01/30 06:34:14;;;;;;;40.53;6.70;;;6.00;99.90;;;;;;5047226;28;20041;-71
2022/01/30 06:36:39;;;;;;;45.70;8.45;;;6.00;99.90;;;;;;5046433;28;20227;-71
2022/01/30 06:39:05;;;;;;;47.15;7.78;;;6.00;99.90;;;;;;5048089;28;20049;-71
2022/01/30 06:41:30;;;;;;;46.22;6.93;;;6.00;99.90;;;;;;5043881;28;20480;-70
2022/01/30 06:43:56;;;;;;;42.88;8.13;;;6.10;99.90;;;;;;5047041;28;20477;-70
2022/01/30 06:46:21;;;;;;;32.65;6.30;;;6.10;99.90;;;;;;5046812;28;20060;-71
2022/01/30 06:48:47;;;;;;;44.58;7.88;;;6.20;99.90;;;;;;5045493;28;20493;-71
2022/01/30 06:51:13;;;;;;;36.70;7.10;;;6.30;99.90;;;;;;5047383;28;20051;-69
2022/01/30 06:53:38;;;;;;;37.55;7.18;;;6.30;99.90;;;;;;5047138;28;20037;-71
2022/01/30 06:56:06;;;;;;;43.42;7.22;;;6.40;99.90;;;;;;5035640;28;20048;-71
2022/01/30 06:58:31;;;;;;;35.38;6.65;;;6.40;99.90;;;;;;5046559;28;20095;-69
2022/01/30 07:00:57;;;;;;;31.02;6.55;;;6.50;99.90;;;;;;5046685;28;20072;-69
2022/01/30 07:03:22;;;;;;;26.98;6.10;;;6.50;99.90;;;;;;5046006;28;20037;-71
2022/01/30 07:05:48;;;;;;;36.28;6.55;;;6.50;99.90;;;;;;5048628;28;20041;-69
2022/01/30 07:08:13;;;;;;;34.15;6.70;;;6.50;99.90;;;;;;5045087;28;20047;-69
2022/01/30 07:10:40;;;;;;;42.60;7.43;;;6.50;99.90;;;;;;5047730;28;20044;-69
2022/01/30 07:13:07;;;;;;;43.50;7.18;;;6.40;99.90;;;;;;5046788;28;20477;-70
2022/01/30 07:15:33;;;;;;;42.95;7.03;;;6.30;99.90;;;;;;5048015;28;20397;-70
2022/01/30 07:17:58;;;;;;;50.40;8.48;;;6.40;99.90;;;;;;5050665;28;20052;-69
2022/01/30 07:20:24;;;;;;;47.30;6.47;;;6.30;99.90;;;;;;5046830;28;20037;-69
2022/01/30 07:22:50;;;;;;;40.30;7.57;;;6.30;99.90;;;;;;5047562;28;20052;-69
2022/01/30 07:25:15;;;;;;;28.73;6.22;;;6.30;99.90;;;;;;5047673;28;20041;-69
2022/01/30 07:27:42;;;;;;;41.53;6.88;;;6.30;99.90;;;;;;5047002;28;20060;-69
2022/01/30 07:30:08;;;;;;;40.65;7.10;;;6.40;99.90;;;;;;5048282;28;20080;-69
2022/01/30 07:32:34;;;;;;;34.38;6.43;;;6.40;99.90;;;;;;5047381;28;20052;-70
2022/01/30 07:35:00;;;;;;;32.38;5.15;;;6.40;99.90;;;;;;5046305;28;20044;-69
2022/01/30 07:37:26;;;;;;;26.17;5.57;;;6.40;99.90;;;;;;5044855;28;20041;-70
2022/01/30 07:39:52;;;;;;;34.67;5.78;;;6.40;99.90;;;;;;5049303;28;20053;-70
2022/01/30 07:42:19;;;;;;;34.15;6.95;;;6.50;99.90;;;;;;5033115;28;20048;-69
2022/01/30 07:44:45;;;;;;;29.45;5.88;;;6.50;99.90;;;;;;5046538;28;20060;-70
2022/01/30 07:47:11;;;;;;;33.15;6.20;;;7.20;99.90;;;;;;5048148;28;20041;-69
2022/01/30 07:49:36;;;;;;;35.72;6.07;;;6.50;99.90;;;;;;5043512;28;20132;-66
2022/01/30 07:52:02;;;;;;;26.17;5.93;;;7.80;99.90;;;;;;5048238;28;20052;-66
2022/01/30 07:54:28;;;;;;;27.48;5.78;;;6.50;99.90;;;;;;5047737;28;20045;-66
2022/01/30 07:56:54;;;;;;;31.08;6.03;;;6.50;99.90;;;;;;5044467;28;20081;-66
2022/01/30 07:59:21;;;;;;;38.42;6.63;;;6.50;99.90;;;;;;5046823;28;20599;-65
2022/01/30 08:01:46;;;;;;;36.58;6.65;;;6.60;99.90;;;;;;5044231;28;20087;-67
2022/01/30 08:04:12;;;;;;;32.67;6.65;;;6.90;99.90;;;;;;5045060;28;20044;-65
2022/01/30 08:06:38;;;;;;;35.85;6.85;;;6.60;99.90;;;;;;5046307;28;20052;-67
2022/01/30 08:09:04;;;;;;;37.00;7.60;;;6.60;99.90;;;;;;5048555;28;20393;-67
2022/01/30 08:11:29;;;;;;;40.65;7.50;;;6.60;99.90;;;;;;5047492;28;20040;-65
2022/01/30 08:13:55;;;;;;;37.80;6.78;;;6.60;99.90;;;;;;5049946;28;20068;-65
2022/01/30 08:16:22;;;;;;;35.05;6.50;;;6.50;99.90;;;;;;5051916;28;20044;-65
2022/01/30 08:18:48;;;;;;;52.67;8.15;;;6.60;99.90;;;;;;5048167;28;20048;-66
2022/01/30 08:21:14;;;;;;;47.50;8.15;;;6.60;99.90;;;;;;5052027;28;20489;-66
2022/01/30 08:23:39;;;;;;;34.58;7.22;;;6.70;99.90;;;;;;5050216;28;20045;-66
2022/01/30 08:26:05;;;;;;;41.40;7.22;;;6.70;99.90;;;;;;5051579;28;20048;-66
2022/01/30 08:28:30;;;;;;;45.10;8.68;;;6.70;99.90;;;;;;5032137;28;20049;-66
2022/01/30 08:30:56;;;;;;;45.70;6.70;;;6.80;99.90;;;;;;5031198;28;20045;-66
2022/01/30 08:33:23;;;;;;;43.28;7.25;;;6.80;99.90;;;;;;5033115;28;20049;-66
2022/01/30 08:35:49;;;;;;;38.25;6.93;;;6.90;99.90;;;;;;5051196;28;20442;-66
2022/01/30 08:38:17;;;;;;;37.53;7.38;;;6.90;99.90;;;;;;5048848;28;20049;-66
2022/01/30 08:40:46;;;;;;;36.10;6.03;;;7.00;99.90;;;;;;5047982;28;20049;-66
2022/01/30 08:43:12;;;;;;;33.08;6.63;;;7.30;99.90;;;;;;5062926;28;20176;-66
2022/01/30 08:45:38;;;;;;;34.72;6.93;;;7.50;99.90;;;;;;5049961;28;20041;-66
2022/01/30 08:48:04;;;;;;;35.35;7.28;;;7.60;99.90;;;;;;5050488;28;20082;-66
2022/01/30 08:50:30;;;;;;;34.47;7.53;;;7.50;99.90;;;;;;5031537;28;20045;-66
2022/01/30 08:52:55;;;;;;;35.80;6.55;;;7.40;99.90;;;;;;5049398;28;20083;-66
2022/01/30 08:55:21;;;;;;;42.88;6.70;;;7.40;99.90;;;;;;5049072;28;20102;-66
2022/01/30 08:57:47;;;;;;;36.13;6.53;;;7.40;99.90;;;;;;5047517;28;20064;-66
2022/01/30 09:00:15;;;;;;;44.70;7.90;;;7.30;99.90;;;;;;5048637;28;20130;-66
2022/01/30 09:02:41;;;;;;;39.80;7.47;;;7.30;99.90;;;;;;5049583;28;20052;-66
2022/01/30 09:05:09;;;;;;;38.63;7.88;;;7.60;99.90;;;;;;5047624;28;20776;-66
2022/01/30 09:07:35;;;;;;;35.53;7.10;;;8.40;99.90;;;;;;5050859;28;20073;-66
2022/01/30 09:10:01;;;;;;;36.72;7.13;;;8.80;99.90;;;;;;5049999;28;20163;-66
2022/01/30 09:12:26;;;;;;;38.47;6.43;;;9.70;99.90;;;;;;5049334;28;20546;-66
2022/01/30 09:14:53;;;;;;;35.67;6.82;;;10.20;99.90;;;;;;5049411;28;20041;-66
2022/01/30 09:17:19;;;;;;;40.10;8.25;;;10.10;99.90;;;;;;5050493;28;20033;-66
2022/01/30 09:19:46;;;;;;;37.45;7.82;;;9.80;99.90;;;;;;5047653;28;20079;-66
2022/01/30 09:22:14;;;;;;;35.63;7.15;;;9.60;99.90;;;;;;5053176;28;20041;-66
2022/01/30 09:24:40;;;;;;;37.20;6.88;;;9.80;99.90;;;;;;5050318;28;20048;-66
2022/01/30 09:27:07;;;;;;;41.53;7.65;;;10.50;99.90;;;;;;5049181;28;20517;-67
2022/01/30 09:29:35;;;;;;;31.85;6.10;;;11.60;99.90;;;;;;5048287;28;20402;-68
2022/01/30 09:32:01;;;;;;;25.80;5.25;;;12.70;99.30;;;;;;5050213;28;20175;-68
2022/01/30 09:34:27;;;;;;;26.45;5.85;;;13.70;97.20;;;;;;5047706;28;20055;-68
2022/01/30 09:36:53;;;;;;;24.13;5.65;;;14.70;95.80;;;;;;5048992;28;20041;-66
2022/01/30 09:39:19;;;;;;;23.80;4.60;;;14.10;94.40;;;;;;5048613;28;20091;-68
2022/01/30 09:41:47;;;;;;;25.83;6.30;;;13.70;94.40;;;;;;5048441;28;20052;-68
2022/01/30 09:44:14;;;;;;;23.02;5.18;;;14.00;94.60;;;;;;5031759;28;20072;-67
2022/01/30 09:46:40;;;;;;;29.15;6.43;;;13.90;93.30;;;;;;5046494;28;20128;-68
2022/01/30 09:49:09;;;;;;;27.30;6.03;;;13.40;94.80;;;;;;5047957;28;20090;-66
2022/01/30 09:51:39;;;;;;;29.92;6.28;;;12.90;95.10;;;;;;5049041;28;20186;-67
2022/01/30 09:54:08;;;;;;;27.38;5.85;;;13.40;95.50;;;;;;5047762;28;20360;-67
2022/01/30 09:56:34;;;;;;;28.85;7.10;;;13.80;95.30;;;;;;5047568;28;20094;-67
2022/01/30 09:59:00;;;;;;;31.02;6.38;;;14.60;94.70;;;;;;5048978;28;20053;-67
2022/01/30 10:01:32;;;;;;;29.00;5.85;;;13.20;95.50;;;;;;5047442;28;20450;-67
2022/01/30 10:03:58;;;;;;;25.13;6.00;;;12.70;95.70;;;;;;5043532;28;20398;-67
2022/01/30 10:06:29;;;;;;;24.98;5.80;;;12.40;96.40;;;;;;5029443;28;20052;-67
2022/01/30 10:08:57;;;;;;;23.40;5.63;;;13.00;96.70;;;;;;5031365;28;20120;-67
2022/01/30 10:11:28;;;;;;;24.63;5.88;;;14.70;96.20;;;;;;5051825;28;20044;-66
2022/01/30 10:14:10;;;;;;;25.60;5.95;;;14.90;94.80;;;;;;5047853;28;20041;-67
2022/01/30 10:16:45;;;;;;;27.42;5.47;;;15.80;93.30;;;;;;5048369;28;20053;-68
2022/01/30 10:19:23;;;;;;;30.27;6.20;;;16.30;92.90;;;;;;5046852;28;20464;-67
2022/01/30 10:22:09;;;;;;;26.20;6.30;;;17.00;91.30;;;;;;5046343;28;20044;-67
2022/01/30 10:24:40;;;;;;;29.58;6.15;;;17.10;90.50;;;;;;5048118;28;20053;-67
2022/01/30 10:27:24;;;;;;;30.60;6.15;;;16.70;88.10;;;;;;5047564;28;20051;-68
2022/01/30 10:30:07;;;;;;;34.33;7.07;;;15.40;90.70;;;;;;5046108;28;20037;-67
2022/01/30 10:32:34;;;;;;;30.38;6.57;;;14.10;93.30;;;;;;5063669;28;20345;-68
2022/01/30 10:34:59;;;;;;;39.40;6.93;;;13.00;96.10;;;;;;5047681;28;20055;-67
2022/01/30 10:37:25;;;;;;;32.10;6.93;;;12.30;97.60;;;;;;5047675;28;20052;-67
2022/01/30 10:40:19;;;;;;;39.30;7.57;;;11.90;98.20;;;;;;5047967;28;20045;-68
2022/01/30 10:42:51;;;;;;;26.55;5.72;;;12.10;98.90;;;;;;5047733;28;20089;-68
2022/01/30 10:45:31;;;;;;;27.15;6.10;;;13.10;97.40;;;;;;5048683;28;20044;-67
2022/01/30 10:48:21;;;;;;;26.15;6.00;;;14.90;95.30;;;;;;5048444;28;20076;-68
2022/01/30 10:50:48;;;;;;;29.15;6.47;;;14.60;93.50;;;;;;5046550;28;20052;-68
2022/01/30 10:53:20;;;;;;;28.40;6.18;;;14.80;93.00;;;;;;5046738;28;20036;-68
2022/01/30 10:55:46;;;;;;;29.20;6.05;;;15.50;91.80;;;;;;5048511;28;20053;-68
2022/01/30 10:58:15;;;;;;;26.70;5.93;;;16.10;89.70;;;;;;5030859;28;20057;-68
2022/01/30 11:00:46;;;;;;;31.05;6.82;;;16.70;84.80;;;;;;5027030;28;20053;-67
2022/01/30 11:03:36;;;;;;;24.50;6.13;;;17.50;82.90;;;;;;5027604;28;20053;-67
2022/01/30 11:06:03;;;;;;;24.65;5.53;;;18.40;77.80;;;;;;5027723;28;20048;-66
2022/01/30 11:08:33;;;;;;;28.52;6.47;;;19.10;71.70;;;;;;5026060;28;20132;-67
2022/01/30 11:11:13;;;;;;;26.17;5.70;;;19.60;73.10;;;;;;5027323;28;20050;-68
2022/01/30 11:14:52;;;;;;;26.42;5.50;;;19.70;66.80;;;;;;5045657;28;20037;-65
2022/01/30 11:16:56;;;;;;;25.25;5.18;;;20.10;63.50;;;;;;5044562;28;20045;-67
2022/01/30 11:19:23;;;;;;;27.50;6.57;;;20.10;60.80;;;;;;5045282;28;20053;-67
2022/01/30 11:21:57;;;;;;;31.17;6.18;;;19.90;62.90;;;;;;5047186;28;20038;-67
2022/01/30 11:24:25;;;;;;;23.23;5.05;;;20.10;61.70;;;;;;5046420;28;20122;-67
2022/01/30 11:26:51;;;;;;;28.20;6.47;;;19.60;58.50;;;;;;5051970;28;20354;-68
2022/01/30 11:29:20;;;;;;;26.42;6.25;;;19.00;62.40;;;;;;5036660;28;20047;-73
2022/01/30 11:31:46;;;;;;;27.67;6.80;;;19.30;62.80;;;;;;5039468;28;20128;-72
2022/01/30 11:34:12;;;;;;;28.58;6.38;;;20.40;62.30;;;;;;5021832;28;20068;-72
2022/01/30 11:36:41;;;;;;;31.50;6.03;;;20.50;61.20;;;;;;5024712;28;20068;-72
2022/01/30 11:39:09;;;;;;;27.00;6.68;;;20.50;61.40;;;;;;5024177;28;20038;-72
2022/01/30 11:41:35;;;;;;;28.60;6.18;;;21.00;58.70;;;;;;5028479;28;20388;-72
2022/01/30 11:44:18;;;;;;;27.52;5.95;;;20.60;58.00;;;;;;5042399;28;20128;-72
2022/01/30 11:47:04;;;;;;;25.35;5.95;;;20.70;57.50;;;;;;5041521;28;20351;-72
2022/01/30 11:49:36;;;;;;;;;;;20.70;57.60;;;;;;5036455;28;20482;-72
2022/01/30 11:52:02;;;;;;;32.22;6.70;;;20.50;58.50;;;;;;5040484;28;20003;-72
2022/01/30 11:54:41;;;;;;;31.20;6.32;;;20.50;59.80;;;;;;5046448;28;20580;-72
2022/01/30 11:57:21;;;;;;;25.77;5.68;;;21.10;56.40;;;;;;5048268;28;20379;-73
2022/01/30 11:59:52;;;;;;;30.48;6.43;;;20.80;57.10;;;;;;5044355;28;20053;-74
2022/01/30 12:02:29;;;;;;;30.55;6.25;;;20.50;57.30;;;;;;5037245;28;20425;-75
2022/01/30 12:04:56;;;;;;;36.00;7.40;;;20.30;58.70;;;;;;5043534;28;20049;-73
2022/01/30 12:07:39;;;;;;;21.80;5.70;;;19.80;60.10;;;;;;5051246;28;20101;-73
2022/01/30 12:10:20;;;;;;;23.08;5.53;;;20.20;57.20;;;;;;5058168;28;20123;-74
2022/01/30 12:12:49;;;;;;;27.98;5.50;;;20.10;58.10;;;;;;5045772;28;20159;-74
2022/01/30 12:15:38;;;;;;;25.95;5.50;;;20.40;55.80;;;;;;5044253;28;20128;-72
2022/01/30 12:18:05;;;;;;;30.83;6.47;;;20.00;55.70;;;;;;5044648;28;20111;-73
2022/01/30 12:21:00;;;;;;;32.08;6.22;;;19.00;57.10;;;;;;5045252;28;20037;-73
2022/01/30 12:23:36;;;;;;;27.98;6.38;;;17.60;60.30;;;;;;5046629;28;20056;-72
2022/01/30 12:26:08;;;;;;;21.90;5.07;;;16.10;64.90;;;;;;5050394;28;20436;-71
2022/01/30 12:28:42;;;;;;;26.73;6.10;;;15.30;67.70;;;;;;5043895;28;20690;-71
2022/01/30 12:31:38;;;;;;;25.75;5.97;;;14.00;72.70;;;;;;5045329;28;20393;-72
2022/01/30 12:34:14;;;;;;;25.50;6.20;;;13.10;81.00;;;;;;5047723;28;20045;-73
2022/01/30 12:36:51;;;;;;;27.95;6.13;;;12.90;89.50;;;;;;5046691;28;20045;-72
2022/01/30 12:39:22;;;;;;;24.00;5.47;;;13.50;90.50;;;;;;5045675;28;20076;-73
2022/01/30 12:41:49;;;;;;;23.23;5.88;;;14.50;86.20;;;;;;5048610;28;20045;-74
2022/01/30 12:44:19;;;;;;;20.55;5.57;;;15.50;82.60;;;;;;5050475;28;20041;-74
2022/01/30 12:46:51;;;;;;;27.77;5.53;;;16.70;80.80;;;;;;5050039;28;20078;-74
2022/01/30 12:49:25;;;;;;;28.00;5.72;;;16.70;75.60;;;;;;5047428;28;20060;-74
2022/01/30 12:51:56;;;;;;;25.43;5.50;;;17.00;75.80;;;;;;5052768;28;20045;-74
2022/01/30 12:54:37;;;;;;;26.63;5.47;;;17.70;69.90;;;;;;5050917;28;20083;-75
2022/01/30 12:57:04;;;;;;;20.05;4.47;;;18.10;68.30;;;;;;5050445;28;20049;-74
2022/01/30 12:59:30;;;;;;;29.77;5.75;;;18.60;64.10;;;;;;5049673;28;20412;-74
2022/01/30 13:02:08;;;;;;;22.55;5.22;;;18.60;63.00;;;;;;5051009;28;20056;-74
2022/01/30 13:04:36;;;;;;;24.58;5.35;;;18.60;61.60;;;;;;5048566;28;20421;-74
2022/01/30 13:07:03;;;;;;;22.17;5.57;;;18.10;61.60;;;;;;5051274;28;20045;-74
2022/01/30 13:09:31;;;;;;;23.10;5.72;;;17.70;61.50;;;;;;5037067;28;20109;-74
2022/01/30 13:12:00;;;;;;;22.65;5.57;;;17.00;63.70;;;;;;5049955;28;20040;-74
2022/01/30 13:14:33;;;;;;;26.33;5.45;;;17.00;64.30;;;;;;5050486;28;20045;-74
2022/01/30 13:16:59;;;;;;;25.42;5.43;;;16.90;64.30;;;;;;5049895;28;20088;-74
2022/01/30 13:19:30;;;;;;;21.85;4.97;;;16.50;65.40;;;;;;5034443;28;20212;-74
2022/01/30 13:21:55;;;;;;;23.85;5.53;;;16.50;65.10;;;;;;5047070;28;20077;-73
2022/01/30 13:24:21;;;;;;;21.67;5.10;;;15.80;66.80;;;;;;5030688;28;20076;-73
2022/01/30 13:26:54;;;;;;;27.63;5.78;;;15.10;70.70;;;;;;5031998;28;20490;-75
2022/01/30 13:29:21;;;;;;;24.25;5.57;;;14.80;73.70;;;;;;5028872;28;20187;-72